Time;durP1;ratioP1;P1;durP2;ratioP2;P2;SDS_P1;SDS_P2;PMS_P1;PMS_P2;Temp;Humidity;BMP_temperature;BMP_pressure;BME280_temperature;BME280_humidity;BME280_pressure;Samples;Min_cycle;Max_cycle;Signal;HPM_P1;HPM_P2
2022/12/04 00:01:22;;;;;;;51.95;22.45;;;2.00;99.90;;;;;;5122085;27;20048;-82
2022/12/04 00:03:54;;;;;;;49.53;19.95;;;1.10;99.90;;;;;;5105190;27;20489;-82
2022/12/04 00:06:20;;;;;;;51.25;22.15;;;1.10;99.90;;;;;;5140093;27;20091;-82
2022/12/04 00:08:46;;;;;;;54.80;22.73;;;2.70;99.90;;;;;;5122057;27;20057;-82
2022/12/04 00:11:12;;;;;;;42.03;18.95;;;1.40;99.90;;;;;;5139281;27;20529;-82
2022/12/04 00:13:38;;;;;;;51.90;21.20;;;1.20;99.90;;;;;;5121858;27;20121;-82
2022/12/04 00:16:05;;;;;;;57.35;24.05;;;2.80;99.90;;;;;;5121689;27;20042;-82
2022/12/04 00:18:31;;;;;;;49.65;18.55;;;1.30;99.90;;;;;;5122068;27;20077;-82
2022/12/04 00:20:56;;;;;;;53.50;21.98;;;1.40;99.90;;;;;;5155928;27;20085;-82
2022/12/04 00:23:22;;;;;;;54.47;24.23;;;1.30;99.90;;;;;;5122152;27;20053;-82
2022/12/04 00:25:48;;;;;;;43.03;17.67;;;2.00;99.90;;;;;;5138361;27;20492;-82
2022/12/04 00:28:15;;;;;;;53.60;22.38;;;1.10;99.90;;;;;;5155979;27;20046;-82
2022/12/04 00:30:42;;;;;;;59.38;22.60;;;2.30;99.90;;;;;;5138069;27;20126;-82
2022/12/04 00:33:08;;;;;;;58.60;23.17;;;1.10;99.90;;;;;;5155598;27;20076;-82
2022/12/04 00:35:33;;;;;;;56.30;25.67;;;1.00;99.90;;;;;;5138766;27;20534;-82
2022/12/04 00:37:59;;;;;;;53.70;23.23;;;2.20;99.90;;;;;;5138599;27;20364;-82
2022/12/04 00:40:25;;;;;;;54.08;22.67;;;0.90;99.90;;;;;;5121611;27;20389;-82
2022/12/04 00:42:50;;;;;;;56.60;23.90;;;1.00;99.90;;;;;;5121188;27;20438;-83
2022/12/04 00:45:16;;;;;;;52.38;22.42;;;1.00;99.90;;;;;;5138570;27;20435;-82
2022/12/04 00:47:42;;;;;;;52.92;23.25;;;0.90;99.90;;;;;;5154905;27;20047;-82
2022/12/04 00:50:08;;;;;;;54.97;24.17;;;0.90;99.90;;;;;;5155297;27;20071;-82
2022/12/04 00:52:33;;;;;;;44.28;19.02;;;0.90;99.90;;;;;;5138316;27;20065;-82
2022/12/04 00:54:59;;;;;;;51.90;23.48;;;2.30;99.90;;;;;;5137732;27;20046;-82
2022/12/04 00:57:24;;;;;;;53.72;23.55;;;2.00;99.90;;;;;;5138282;27;20060;-82
2022/12/04 00:59:50;;;;;;;53.55;23.80;;;1.10;99.90;;;;;;5155151;27;20049;-82
2022/12/04 01:02:16;;;;;;;38.28;17.13;;;1.50;99.90;;;;;;5155521;27;20078;-82
2022/12/04 01:04:41;;;;;;;48.00;19.95;;;1.20;99.90;;;;;;5137784;27;20038;-82
2022/12/04 01:07:07;;;;;;;55.58;23.23;;;1.10;99.90;;;;;;5120223;27;20086;-82
2022/12/04 01:09:33;;;;;;;62.92;25.60;;;1.10;99.90;;;;;;5155261;27;20049;-82
2022/12/04 01:11:58;;;;;;;52.97;22.50;;;1.00;99.90;;;;;;5155101;27;20405;-82
2022/12/04 01:14:24;;;;;;;50.17;21.40;;;0.90;99.90;;;;;;5138097;27;20562;-83
2022/12/04 01:16:50;;;;;;;57.00;24.45;;;1.10;99.90;;;;;;5155099;27;20089;-82
2022/12/04 01:19:15;;;;;;;52.75;21.70;;;1.00;99.90;;;;;;5155280;27;20066;-82
2022/12/04 01:21:41;;;;;;;52.30;21.92;;;1.00;99.90;;;;;;5155513;27;20389;-82
2022/12/04 01:24:07;;;;;;;58.15;24.98;;;2.30;99.90;;;;;;5155055;27;20390;-82
2022/12/04 01:26:33;;;;;;;51.53;23.73;;;0.90;99.90;;;;;;5138262;27;20117;-82
2022/12/04 01:28:58;;;;;;;56.88;24.35;;;2.30;99.90;;;;;;5120032;27;20444;-82
2022/12/04 01:31:24;;;;;;;39.58;17.75;;;1.30;99.90;;;;;;5130672;27;20106;-82
2022/12/04 01:33:50;;;;;;;57.92;26.52;;;2.10;99.90;;;;;;5102969;27;20042;-82
2022/12/04 01:36:24;;;;;;;55.90;24.75;;;1.60;99.90;;;;;;5116668;27;20050;-82
2022/12/04 01:38:49;;;;;;;52.17;23.15;;;1.00;99.90;;;;;;5099977;27;20058;-81
2022/12/04 01:41:17;;;;;;;55.50;24.25;;;0.90;99.90;;;;;;5133429;27;20475;-82
2022/12/04 01:43:42;;;;;;;58.72;26.85;;;0.90;99.90;;;;;;5117180;27;20046;-82
2022/12/04 01:46:08;;;;;;;46.58;19.60;;;1.60;99.90;;;;;;5116524;27;20046;-82
2022/12/04 01:48:45;;;;;;;57.42;25.15;;;0.90;99.90;;;;;;5116469;27;20063;-82
2022/12/04 01:51:29;;;;;;;55.40;23.92;;;0.80;99.90;;;;;;5099613;27;20050;-82
2022/12/04 01:54:13;;;;;;;55.08;24.17;;;2.00;99.90;;;;;;5116621;27;20454;-82
2022/12/04 01:56:50;;;;;;;55.63;25.10;;;0.80;99.90;;;;;;5083850;27;20050;-82
2022/12/04 01:59:16;;;;;;;55.17;26.35;;;0.80;99.90;;;;;;5099505;27;20304;-82
2022/12/04 02:01:51;;;;;;;57.75;24.83;;;0.90;99.90;;;;;;5116967;27;20051;-82
2022/12/04 02:04:17;;;;;;;55.53;23.77;;;0.70;99.90;;;;;;5083936;27;20486;-82
2022/12/04 02:06:43;;;;;;;52.47;23.88;;;0.90;99.90;;;;;;5116554;27;20039;-82
2022/12/04 02:09:08;;;;;;;61.97;25.75;;;0.80;99.90;;;;;;5133661;27;20042;-82
2022/12/04 02:11:41;;;;;;;60.03;24.63;;;0.80;99.90;;;;;;5116754;27;20482;-82
2022/12/04 02:14:33;;;;;;;60.47;25.50;;;1.60;99.90;;;;;;5099384;27;20585;-83
2022/12/04 02:17:24;;;;;;;63.05;26.52;;;0.70;99.90;;;;;;5119176;27;20047;-83
2022/12/04 02:19:53;;;;;;;56.70;24.60;;;0.70;99.90;;;;;;5116427;27;20482;-83
2022/12/04 02:22:37;;;;;;;51.47;23.75;;;0.70;99.90;;;;;;5133316;27;20276;-83
2022/12/04 02:25:21;;;;;;;59.28;24.80;;;0.70;99.90;;;;;;5117356;27;20051;-83
2022/12/04 02:28:01;;;;;;;52.60;22.17;;;0.70;99.90;;;;;;5133241;27;20047;-83
2022/12/04 02:30:28;;;;;;;58.28;24.30;;;0.90;99.90;;;;;;5101187;27;20133;-83
2022/12/04 02:32:53;;;;;;;55.60;22.83;;;0.80;99.90;;;;;;5083125;27;20051;-83
2022/12/04 02:35:24;;;;;;;51.22;23.38;;;0.80;99.90;;;;;;5133130;27;20047;-83
2022/12/04 02:37:53;;;;;;;58.78;25.15;;;0.90;99.90;;;;;;5116019;27;20050;-83
2022/12/04 02:40:30;;;;;;;60.88;25.45;;;0.90;99.90;;;;;;5099316;27;20047;-83
2022/12/04 02:43:02;;;;;;;57.08;24.88;;;0.80;99.90;;;;;;5083102;27;20042;-83
2022/12/04 02:45:34;;;;;;;64.55;26.50;;;0.90;99.90;;;;;;5099158;27;20047;-83
2022/12/04 02:48:01;;;;;;;44.40;20.00;;;2.30;99.90;;;;;;5099199;27;20449;-83
2022/12/04 02:50:26;;;;;;;61.70;25.35;;;0.70;99.90;;;;;;5099486;27;20460;-83
2022/12/04 02:52:55;;;;;;;61.35;25.73;;;0.70;99.90;;;;;;5099302;27;20130;-82
2022/12/04 02:55:34;;;;;;;57.20;24.55;;;0.60;99.90;;;;;;5118304;27;20115;-82
2022/12/04 02:58:03;;;;;;;59.80;25.33;;;0.70;99.90;;;;;;5103318;27;20050;-82
2022/12/04 03:00:29;;;;;;;59.03;26.65;;;2.20;99.90;;;;;;5103401;27;20094;-82
2022/12/04 03:03:00;;;;;;;41.60;17.40;;;0.60;99.90;;;;;;5103011;27;20035;-82
2022/12/04 03:05:37;;;;;;;51.85;21.00;;;0.70;99.90;;;;;;5103067;27;20046;-82
2022/12/04 03:08:09;;;;;;;59.45;25.20;;;2.10;99.90;;;;;;5103505;27;20137;-82
2022/12/04 03:10:38;;;;;;;63.55;26.65;;;0.70;99.90;;;;;;5103173;27;20049;-82
2022/12/04 03:13:10;;;;;;;56.88;23.83;;;0.90;99.90;;;;;;5102663;27;20062;-82
2022/12/04 03:15:58;;;;;;;58.90;25.25;;;0.60;99.90;;;;;;5103045;27;20109;-82
2022/12/04 03:18:54;;;;;;;59.17;25.48;;;0.70;99.90;;;;;;5119562;27;20061;-82
2022/12/04 03:21:23;;;;;;;61.40;24.42;;;0.60;99.90;;;;;;5117698;27;20050;-82
2022/12/04 03:24:14;;;;;;;63.33;27.27;;;2.00;99.90;;;;;;5119981;27;20054;-82
2022/12/04 03:26:45;;;;;;;63.42;26.92;;;0.80;99.90;;;;;;5102892;27;20047;-82
2022/12/04 03:29:14;;;;;;;59.13;22.33;;;0.40;99.90;;;;;;5119189;27;20047;-82
2022/12/04 03:32:21;;;;;;;58.05;25.33;;;0.50;99.90;;;;;;5085799;27;20107;-82
2022/12/04 03:34:50;;;;;;;67.28;26.92;;;1.00;99.90;;;;;;5040260;28;20109;-82
2022/12/04 03:37:17;;;;;;;67.22;28.25;;;1.50;99.90;;;;;;5073135;28;20076;-82
2022/12/04 03:39:47;;;;;;;66.03;26.98;;;0.40;99.90;;;;;;5081526;27;20079;-82
2022/12/04 03:42:17;;;;;;;53.75;24.17;;;1.90;99.90;;;;;;5135977;27;20065;-82
2022/12/04 03:44:53;;;;;;;64.70;28.60;;;0.50;99.90;;;;;;5102417;27;20086;-82
2022/12/04 03:47:23;;;;;;;57.88;25.77;;;0.50;99.90;;;;;;5119543;27;20490;-81
2022/12/04 03:50:12;;;;;;;65.85;28.90;;;1.10;99.90;;;;;;5102188;27;20059;-82
2022/12/04 03:52:46;;;;;;;67.05;28.83;;;0.50;99.90;;;;;;5104331;27;20478;-82
2022/12/04 03:55:40;;;;;;;61.08;25.25;;;0.40;99.90;;;;;;5135351;27;20046;-83
2022/12/04 03:58:09;;;;;;;73.23;30.00;;;0.30;99.90;;;;;;5112299;27;20406;-83
2022/12/04 04:00:36;;;;;;;68.47;28.85;;;1.20;99.90;;;;;;5102223;27;20824;-81
2022/12/04 04:03:15;;;;;;;59.50;23.83;;;0.40;99.90;;;;;;5102317;27;20054;-82
2022/12/04 04:05:43;;;;;;;57.95;25.58;;;0.40;99.90;;;;;;5102342;27;20062;-82
2022/12/04 04:08:28;;;;;;;61.60;26.83;;;1.60;99.90;;;;;;5101667;27;20054;-82
2022/12/04 04:11:15;;;;;;;65.90;28.23;;;1.90;99.90;;;;;;5107146;27;20451;-82
2022/12/04 04:25:16;;;;;;;63.72;28.65;;;1.80;99.90;;;;;;5120508;27;20138;-82
2022/12/04 04:27:42;;;;;;;44.97;20.75;;;1.80;99.90;;;;;;5117803;27;20050;-82
2022/12/04 04:30:08;;;;;;;54.38;24.65;;;0.50;99.90;;;;;;5135229;27;20042;-82
2022/12/04 04:32:45;;;;;;;61.28;27.25;;;0.50;99.90;;;;;;5100788;27;20054;-82
2022/12/04 04:35:17;;;;;;;66.13;28.50;;;0.40;99.90;;;;;;5085179;27;20122;-82
2022/12/04 04:37:55;;;;;;;63.22;26.70;;;0.60;99.90;;;;;;5135290;27;20050;-82
2022/12/04 04:40:41;;;;;;;48.30;21.58;;;0.50;99.90;;;;;;5118128;27;20047;-82
2022/12/04 04:43:13;;;;;;;52.33;23.60;;;0.40;99.90;;;;;;5134740;27;20046;-83
2022/12/04 04:45:44;;;;;;;55.67;24.35;;;0.40;99.90;;;;;;5117248;27;20099;-82
2022/12/04 04:48:20;;;;;;;57.17;27.35;;;1.50;99.90;;;;;;5080301;27;20131;-82
2022/12/04 04:50:46;;;;;;;53.83;24.23;;;0.40;99.90;;;;;;5114720;27;20051;-82
2022/12/04 04:53:17;;;;;;;62.95;27.42;;;2.10;99.90;;;;;;5122237;27;20035;-82
2022/12/04 04:55:43;;;;;;;63.70;26.05;;;2.00;99.90;;;;;;5112917;27;20502;-82
2022/12/04 04:58:13;;;;;;;56.15;26.98;;;1.20;99.90;;;;;;5134497;27;20097;-82
2022/12/04 05:00:39;;;;;;;62.95;25.98;;;0.30;99.90;;;;;;5117892;27;20090;-82
2022/12/04 05:03:05;;;;;;;64.03;28.40;;;0.40;99.90;;;;;;5134651;27;20099;-82
2022/12/04 05:05:31;;;;;;;66.15;28.25;;;0.50;99.90;;;;;;5099907;27;20047;-82
2022/12/04 05:07:56;;;;;;;62.70;29.85;;;2.20;99.90;;;;;;5134546;27;20470;-82
2022/12/04 05:10:22;;;;;;;64.88;28.73;;;0.50;99.90;;;;;;5151364;27;20038;-82
2022/12/04 05:12:48;;;;;;;66.68;28.90;;;0.40;99.90;;;;;;5151567;27;20103;-82
2022/12/04 05:15:14;;;;;;;56.38;23.50;;;0.50;99.90;;;;;;5151311;27;20042;-82
2022/12/04 05:17:39;;;;;;;46.95;22.83;;;0.40;99.90;;;;;;5133801;27;20414;-82
2022/12/04 05:20:05;;;;;;;59.65;27.02;;;1.60;99.90;;;;;;5117453;27;20049;-82
2022/12/04 05:22:34;;;;;;;38.10;17.38;;;0.50;99.90;;;;;;5134256;27;20045;-82
2022/12/04 05:25:00;;;;;;;53.72;25.33;;;0.70;99.90;;;;;;5134323;27;20057;-82
2022/12/04 05:27:26;;;;;;;41.83;19.23;;;0.50;99.90;;;;;;5116761;27;20457;-80
2022/12/04 05:29:53;;;;;;;56.40;22.27;;;2.40;99.90;;;;;;5100140;27;20184;-82
2022/12/04 05:32:19;;;;;;;38.95;18.60;;;0.70;99.90;;;;;;5134190;27;20081;-82
2022/12/04 05:34:49;;;;;;;62.80;27.13;;;0.60;99.90;;;;;;5116555;27;20505;-82
2022/12/04 05:37:15;;;;;;;54.33;25.90;;;0.40;99.90;;;;;;5117866;27;20134;-81
2022/12/04 05:39:41;;;;;;;60.55;26.65;;;0.50;99.90;;;;;;5116746;27;20126;-81
2022/12/04 05:42:06;;;;;;;56.45;26.55;;;0.90;99.90;;;;;;5134159;27;20046;-81
2022/12/04 05:44:32;;;;;;;60.95;26.80;;;0.40;99.90;;;;;;5133209;27;20117;-82
2022/12/04 05:46:58;;;;;;;44.10;18.42;;;0.80;99.90;;;;;;5151296;27;20115;-82
2022/12/04 05:49:23;;;;;;;38.28;16.35;;;0.60;99.90;;;;;;5133445;27;20066;-82
2022/12/04 05:51:50;;;;;;;53.72;22.65;;;1.70;99.90;;;;;;5150952;27;20062;-82
2022/12/04 05:54:16;;;;;;;39.35;17.23;;;2.10;99.90;;;;;;5133695;27;20054;-82
2022/12/04 05:56:42;;;;;;;55.25;23.27;;;2.00;99.90;;;;;;5133417;27;20399;-81
2022/12/04 05:59:07;;;;;;;49.55;22.63;;;0.60;99.90;;;;;;5133769;27;20049;-81
2022/12/04 06:01:33;;;;;;;53.65;24.10;;;0.70;99.90;;;;;;5150817;27;20043;-82
2022/12/04 06:03:59;;;;;;;65.90;28.08;;;2.30;99.90;;;;;;5151204;27;20085;-82
2022/12/04 06:06:25;;;;;;;58.00;24.83;;;0.70;99.90;;;;;;5151023;27;20051;-82
2022/12/04 06:08:51;;;;;;;59.85;27.77;;;1.70;99.90;;;;;;5150483;27;20050;-82
2022/12/04 06:11:19;;;;;;;42.15;19.20;;;0.50;99.90;;;;;;5117030;27;20382;-82
2022/12/04 06:13:45;;;;;;;51.45;21.67;;;0.70;99.90;;;;;;5150720;27;20066;-82
2022/12/04 06:16:20;;;;;;;41.00;16.20;;;0.70;99.90;;;;;;5116433;27;20077;-82
2022/12/04 06:18:53;;;;;;;57.90;25.95;;;0.70;99.90;;;;;;5150556;27;20050;-82
2022/12/04 06:21:19;;;;;;;57.45;25.42;;;1.30;99.90;;;;;;5117158;27;20050;-82
2022/12/04 06:23:45;;;;;;;58.20;25.33;;;0.70;99.90;;;;;;5133128;27;20383;-82
2022/12/04 06:26:11;;;;;;;62.95;28.55;;;0.60;99.90;;;;;;5133364;27;20094;-82
2022/12/04 06:28:36;;;;;;;62.50;25.75;;;0.90;99.90;;;;;;5133060;27;20446;-82
2022/12/04 06:31:12;;;;;;;63.85;28.17;;;0.60;99.90;;;;;;5137479;27;20534;-82
2022/12/04 06:33:37;;;;;;;61.45;25.30;;;0.50;99.90;;;;;;5100642;27;20077;-82
2022/12/04 06:36:05;;;;;;;66.28;27.95;;;1.00;99.90;;;;;;5134684;27;20475;-81
2022/12/04 06:38:31;;;;;;;58.30;25.60;;;0.60;99.90;;;;;;5100240;27;20173;-82
2022/12/04 06:40:56;;;;;;;64.15;26.00;;;0.60;99.90;;;;;;5133753;27;20133;-81
2022/12/04 06:43:23;;;;;;;64.65;28.45;;;1.80;99.90;;;;;;5116598;27;20047;-81
2022/12/04 06:45:48;;;;;;;69.70;28.17;;;0.70;99.90;;;;;;5099409;27;20130;-81
2022/12/04 06:48:14;;;;;;;54.25;20.20;;;1.70;99.90;;;;;;5133500;27;20180;-81
2022/12/04 06:50:40;;;;;;;62.92;27.88;;;1.30;99.90;;;;;;5099447;27;20463;-81
2022/12/04 06:53:06;;;;;;;64.32;27.52;;;0.50;99.90;;;;;;5116267;27;20395;-82
2022/12/04 06:55:31;;;;;;;58.60;26.70;;;0.50;99.90;;;;;;5116627;27;20039;-82
2022/12/04 06:57:57;;;;;;;53.50;24.08;;;2.30;99.90;;;;;;5116091;27;20055;-81
2022/12/04 07:00:23;;;;;;;58.83;25.10;;;0.50;99.90;;;;;;5099605;27;20074;-81
2022/12/04 07:02:48;;;;;;;66.03;28.65;;;2.20;99.90;;;;;;5132960;27;20070;-81
2022/12/04 07:05:14;;;;;;;57.92;23.67;;;2.20;99.90;;;;;;5116136;27;20542;-81
2022/12/04 07:07:40;;;;;;;42.63;18.95;;;0.40;99.90;;;;;;5132763;27;20138;-82
2022/12/04 07:10:06;;;;;;;52.13;19.92;;;0.60;99.90;;;;;;5133444;27;20039;-81
2022/12/04 07:12:32;;;;;;;35.67;14.85;;;0.50;99.90;;;;;;5133350;27;20047;-82
2022/12/04 07:14:57;;;;;;;65.55;29.55;;;0.50;99.90;;;;;;5115625;27;20821;-82
2022/12/04 07:17:23;;;;;;;55.50;22.58;;;1.10;99.90;;;;;;5133358;27;20090;-81
2022/12/04 07:19:48;;;;;;;57.42;24.48;;;0.60;99.90;;;;;;5115676;27;20044;-81
2022/12/04 07:22:14;;;;;;;62.65;26.33;;;0.50;99.90;;;;;;5116087;27;20546;-81
2022/12/04 07:24:40;;;;;;;59.92;26.13;;;0.40;99.90;;;;;;5132610;27;20078;-82
2022/12/04 07:27:05;;;;;;;53.05;22.33;;;0.50;99.90;;;;;;5133207;27;20082;-81
2022/12/04 07:29:31;;;;;;;56.65;23.65;;;0.50;99.90;;;;;;5115942;27;20078;-81
2022/12/04 07:31:57;;;;;;;49.40;22.17;;;0.50;99.90;;;;;;5115793;27;20078;-82
2022/12/04 07:34:22;;;;;;;48.80;20.98;;;0.50;99.90;;;;;;5133015;27;20471;-81
2022/12/04 07:36:48;;;;;;;42.15;18.50;;;1.40;99.90;;;;;;5132197;27;20043;-82
2022/12/04 07:39:13;;;;;;;65.93;26.58;;;1.30;99.90;;;;;;5115889;27;20043;-82
2022/12/04 07:41:39;;;;;;;46.92;21.55;;;1.90;99.90;;;;;;5114968;27;20485;-81
2022/12/04 07:44:05;;;;;;;55.67;23.52;;;0.60;99.90;;;;;;5132355;27;20085;-81
2022/12/04 07:46:30;;;;;;;56.45;20.95;;;0.40;99.90;;;;;;5098480;27;20051;-81
2022/12/04 07:48:57;;;;;;;44.75;17.42;;;1.30;99.90;;;;;;5131692;27;20479;-81
2022/12/04 07:51:24;;;;;;;63.72;27.08;;;2.20;99.90;;;;;;5115328;27;20403;-81
2022/12/04 07:53:50;;;;;;;71.82;29.98;;;0.60;99.90;;;;;;5098073;27;20080;-81
2022/12/04 07:56:16;;;;;;;58.47;24.55;;;2.00;99.90;;;;;;5098661;27;20050;-81
2022/12/04 07:58:42;;;;;;;44.85;20.23;;;1.20;99.90;;;;;;5097516;27;20043;-81
2022/12/04 08:01:09;;;;;;;61.55;23.88;;;0.70;99.90;;;;;;5098239;27;20172;-83
2022/12/04 08:03:35;;;;;;;41.15;17.85;;;0.70;99.90;;;;;;5098102;27;20050;-81
2022/12/04 08:06:02;;;;;;;48.30;19.15;;;0.80;99.90;;;;;;5097870;27;20043;-82
2022/12/04 08:08:27;;;;;;;52.80;21.63;;;2.30;99.90;;;;;;5131733;27;20036;-82
2022/12/04 08:10:53;;;;;;;50.15;20.45;;;2.40;99.90;;;;;;5114660;27;20050;-82
2022/12/04 08:13:19;;;;;;;63.45;26.77;;;2.10;99.90;;;;;;5097334;27;20035;-81
2022/12/04 08:15:44;;;;;;;40.00;16.52;;;1.30;99.90;;;;;;5114645;27;20597;-81
2022/12/04 08:18:10;;;;;;;67.72;29.55;;;2.20;99.90;;;;;;5132133;27;20469;-83
2022/12/04 08:20:36;;;;;;;69.32;28.17;;;0.60;99.90;;;;;;5114714;27;20126;-82
2022/12/04 08:23:01;;;;;;;60.78;27.23;;;2.00;99.90;;;;;;5112854;27;20516;-83
2022/12/04 08:25:27;;;;;;;61.30;27.60;;;2.10;99.90;;;;;;5096227;27;20497;-83
2022/12/04 08:27:53;;;;;;;73.00;31.35;;;0.80;99.90;;;;;;5131424;27;20043;-83
2022/12/04 08:30:18;;;;;;;48.10;19.98;;;2.30;99.90;;;;;;5114721;27;20102;-82
2022/12/04 08:32:44;;;;;;;54.50;23.02;;;0.80;99.90;;;;;;5114481;27;20043;-83
2022/12/04 08:35:10;;;;;;;53.78;22.30;;;0.90;99.90;;;;;;5097625;27;20078;-83
2022/12/04 08:37:35;;;;;;;41.42;18.70;;;1.00;99.90;;;;;;5131434;27;20508;-83
2022/12/04 08:40:01;;;;;;;62.78;26.38;;;2.20;99.90;;;;;;5131251;27;20138;-83
2022/12/04 08:42:27;;;;;;;60.42;27.17;;;1.00;99.90;;;;;;5113592;27;20054;-84
2022/12/04 08:44:52;;;;;;;48.15;19.67;;;0.80;99.90;;;;;;5131045;27;20043;-83
2022/12/04 08:47:18;;;;;;;46.55;20.58;;;2.40;99.90;;;;;;5097497;27;20047;-85
2022/12/04 08:49:44;;;;;;;50.88;24.08;;;1.10;99.90;;;;;;5131691;27;20069;-83
2022/12/04 08:52:09;;;;;;;60.28;25.55;;;1.10;99.90;;;;;;5150779;27;20055;-84
2022/12/04 08:54:35;;;;;;;52.58;23.08;;;1.10;99.90;;;;;;5152854;27;20043;-83
2022/12/04 08:57:01;;;;;;;58.72;28.42;;;1.10;99.90;;;;;;5133746;27;20046;-83
2022/12/04 08:59:26;;;;;;;35.08;16.80;;;1.50;99.90;;;;;;5152092;27;20038;-82
2022/12/04 09:01:52;;;;;;;49.38;20.25;;;1.20;99.90;;;;;;5134720;27;20038;-82
2022/12/04 09:04:18;;;;;;;55.40;25.45;;;2.30;99.90;;;;;;5151413;27;20042;-83
2022/12/04 09:06:43;;;;;;;52.92;22.40;;;2.20;99.90;;;;;;5151138;27;20047;-82
2022/12/04 09:09:09;;;;;;;47.38;23.20;;;1.10;99.90;;;;;;5150996;27;20050;-82
2022/12/04 09:11:35;;;;;;;39.42;18.17;;;1.20;99.90;;;;;;5134461;27;20091;-83
2022/12/04 09:14:01;;;;;;;57.90;24.75;;;2.10;99.90;;;;;;5134345;27;20055;-83
2022/12/04 09:16:26;;;;;;;53.97;23.42;;;1.00;99.90;;;;;;5116773;27;20484;-83
2022/12/04 09:18:52;;;;;;;57.33;25.45;;;1.20;99.90;;;;;;5116347;27;20151;-83
2022/12/04 09:21:18;;;;;;;41.75;18.23;;;1.40;99.90;;;;;;5152828;27;20077;-82
2022/12/04 09:23:44;;;;;;;65.38;27.75;;;3.00;99.90;;;;;;5136430;27;20122;-83
2022/12/04 09:26:23;;;;;;;43.92;19.92;;;1.10;99.90;;;;;;5135448;27;20552;-82
2022/12/04 09:28:49;;;;;;;58.17;24.52;;;1.20;99.90;;;;;;5136405;27;20498;-82
2022/12/04 09:31:15;;;;;;;55.22;23.65;;;2.60;99.90;;;;;;5119076;27;20318;-83
2022/12/04 09:33:41;;;;;;;43.70;22.02;;;1.50;99.90;;;;;;5152562;27;20073;-83
2022/12/04 09:36:07;;;;;;;23.30;13.65;;;2.80;99.90;;;;;;5135402;27;20087;-82
2022/12/04 09:38:32;;;;;;;45.88;21.20;;;1.30;99.90;;;;;;5134755;27;20414;-83
2022/12/04 09:41:22;;;;;;;52.25;23.52;;;2.80;99.90;;;;;;5113405;28;20398;-83
2022/12/04 09:44:23;;;;;;;43.30;21.23;;;1.20;99.90;;;;;;5131681;27;20054;-82
2022/12/04 09:46:59;;;;;;;55.67;24.98;;;1.30;99.90;;;;;;5129847;27;20047;-83
2022/12/04 09:49:37;;;;;;;57.13;25.15;;;1.30;99.90;;;;;;5114859;27;20388;-83
2022/12/04 09:52:08;;;;;;;49.22;22.23;;;1.50;99.90;;;;;;5102252;27;20562;-83
2022/12/04 09:54:38;;;;;;;49.58;25.02;;;2.80;99.90;;;;;;5101733;27;20051;-82
2022/12/04 09:57:37;;;;;;;56.65;25.27;;;2.60;99.90;;;;;;5098408;28;20134;-82
2022/12/04 10:00:06;;;;;;;46.05;20.27;;;1.40;99.90;;;;;;5106127;27;20051;-81
2022/12/04 10:02:35;;;;;;;51.88;24.10;;;1.50;99.90;;;;;;5109065;27;20049;-81
2022/12/04 10:05:01;;;;;;;53.30;23.63;;;2.20;99.90;;;;;;5155076;27;20054;-81
2022/12/04 10:07:58;;;;;;;49.67;21.48;;;1.50;99.90;;;;;;5155647;27;20138;-81
2022/12/04 10:10:41;;;;;;;52.15;24.98;;;1.60;99.90;;;;;;5126871;27;20111;-80
2022/12/04 10:13:28;;;;;;;44.33;20.75;;;2.10;99.90;;;;;;5123504;27;20158;-79
2022/12/04 10:16:11;;;;;;;49.75;22.77;;;1.70;99.90;;;;;;5158554;27;20047;-84
2022/12/04 10:18:52;;;;;;;37.13;16.77;;;1.70;99.90;;;;;;5124958;27;20047;-80
2022/12/04 10:21:59;;;;;;;44.88;20.48;;;2.10;99.90;;;;;;5106124;27;20413;-81
2022/12/04 10:24:39;;;;;;;43.08;20.50;;;2.10;99.90;;;;;;5156301;27;20042;-80
2022/12/04 10:27:11;;;;;;;41.03;19.02;;;2.10;99.90;;;;;;5122618;27;20055;-82
2022/12/04 10:29:36;;;;;;;32.60;15.63;;;2.10;99.90;;;;;;5122705;27;20046;-83
2022/12/04 10:32:19;;;;;;;39.72;19.30;;;4.00;99.90;;;;;;5138160;27;20046;-82
2022/12/04 10:34:45;;;;;;;38.95;18.80;;;2.30;99.90;;;;;;5122801;27;20051;-81
2022/12/04 10:37:14;;;;;;;37.80;18.42;;;3.50;99.90;;;;;;5139566;27;20046;-81
2022/12/04 10:39:43;;;;;;;27.70;13.65;;;2.20;99.90;;;;;;5156682;27;20122;-82
2022/12/04 10:42:19;;;;;;;32.95;16.67;;;3.40;99.90;;;;;;5138863;27;20082;-82
2022/12/04 10:44:45;;;;;;;38.15;20.85;;;2.50;99.90;;;;;;5136857;27;20054;-82
2022/12/04 10:47:11;;;;;;;35.83;18.50;;;2.70;99.90;;;;;;5135818;27;20042;-82
2022/12/04 10:49:36;;;;;;;35.97;18.98;;;2.90;99.90;;;;;;5135859;27;20447;-82
2022/12/04 10:52:03;;;;;;;29.63;14.82;;;2.40;99.90;;;;;;5153750;27;20086;-83
2022/12/04 10:54:36;;;;;;;31.95;15.63;;;2.50;99.90;;;;;;5135751;27;20052;-82
2022/12/04 10:57:07;;;;;;;37.05;20.42;;;2.50;99.90;;;;;;5115737;27;20112;-82
2022/12/04 10:59:32;;;;;;;35.83;18.20;;;3.10;99.90;;;;;;5116152;27;20047;-81
2022/12/04 11:02:20;;;;;;;26.23;14.45;;;2.50;99.90;;;;;;5133267;27;20044;-81
2022/12/04 11:04:57;;;;;;;35.80;18.88;;;2.60;99.90;;;;;;5133070;27;20086;-82
2022/12/04 11:07:24;;;;;;;42.05;20.33;;;3.40;99.90;;;;;;5115189;27;20058;-82
2022/12/04 11:10:17;;;;;;;26.92;12.85;;;2.30;99.90;;;;;;5098855;27;20506;-82
2022/12/04 11:12:55;;;;;;;27.35;15.35;;;2.60;99.90;;;;;;5100597;27;20051;-82
2022/12/04 11:15:21;;;;;;;37.95;18.42;;;2.70;99.90;;;;;;5115160;27;20096;-82
2022/12/04 11:17:47;;;;;;;18.63;10.73;;;2.40;99.90;;;;;;5086584;27;20069;-82
2022/12/04 11:20:19;;;;;;;36.00;19.00;;;3.80;99.90;;;;;;5135174;27;20183;-84
2022/12/04 11:22:58;;;;;;;39.42;19.77;;;2.40;99.90;;;;;;5111920;27;20047;-84
2022/12/04 11:25:44;;;;;;;35.15;16.75;;;2.40;99.90;;;;;;5092714;27;20050;-84
2022/12/04 11:28:14;;;;;;;33.03;16.08;;;2.40;99.90;;;;;;5133996;27;20074;-83
2022/12/04 11:30:40;;;;;;;36.90;17.95;;;2.50;99.90;;;;;;5132675;27;20478;-83
2022/12/04 11:33:14;;;;;;;33.05;15.10;;;2.40;99.90;;;;;;5135673;27;20486;-83
2022/12/04 11:35:39;;;;;;;34.40;18.65;;;2.40;99.90;;;;;;5115847;27;20047;-83
2022/12/04 11:38:15;;;;;;;38.17;17.60;;;3.80;99.90;;;;;;5134828;27;20055;-82
2022/12/04 11:40:48;;;;;;;26.25;11.70;;;3.60;99.90;;;;;;5105976;27;20043;-82
2022/12/04 11:43:14;;;;;;;36.78;17.90;;;2.50;99.90;;;;;;5116380;27;20474;-82
2022/12/04 11:45:40;;;;;;;14.75;8.82;;;3.50;99.90;;;;;;5134512;27;20049;-82
2022/12/04 11:48:14;;;;;;;32.10;14.85;;;2.40;99.90;;;;;;5137593;27;21187;-82
2022/12/04 11:50:42;;;;;;;31.88;16.95;;;2.50;99.90;;;;;;5154130;27;20049;-83
2022/12/04 11:53:30;;;;;;;29.73;15.43;;;2.50;99.90;;;;;;5155540;27;20049;-84
2022/12/04 11:56:23;;;;;;;24.75;12.10;;;2.50;99.90;;;;;;5153854;27;20054;-83
2022/12/04 11:58:49;;;;;;;31.75;16.73;;;2.60;99.90;;;;;;5155182;27;20044;-83
2022/12/04 12:01:27;;;;;;;29.70;14.38;;;3.50;99.90;;;;;;5137820;27;20133;-83
2022/12/04 12:04:18;;;;;;;32.10;15.95;;;2.90;99.90;;;;;;5137980;27;20432;-83
2022/12/04 12:06:52;;;;;;;30.45;15.27;;;2.80;99.90;;;;;;5149306;27;20106;-82
2022/12/04 12:09:30;;;;;;;31.63;17.35;;;2.60;99.90;;;;;;5138131;27;20501;-83
2022/12/04 12:11:59;;;;;;;35.20;17.88;;;2.60;99.90;;;;;;5153726;27;20056;-82
2022/12/04 12:14:28;;;;;;;31.30;15.82;;;3.80;99.90;;;;;;5155484;27;20102;-83
2022/12/04 12:17:29;;;;;;;32.97;15.85;;;2.50;99.90;;;;;;5138044;27;20095;-83
2022/12/04 12:20:23;;;;;;;32.55;16.27;;;2.60;99.90;;;;;;5152587;27;20050;-83
2022/12/04 12:22:56;;;;;;;28.75;16.10;;;2.50;99.90;;;;;;5116138;27;20038;-83
2022/12/04 12:25:40;;;;;;;23.40;10.32;;;3.90;99.90;;;;;;5138742;27;20045;-82
2022/12/04 12:28:35;;;;;;;26.13;14.80;;;3.10;99.90;;;;;;5153263;27;20034;-83
2022/12/04 12:31:07;;;;;;;21.17;11.60;;;2.80;99.90;;;;;;5119189;27;20084;-83
2022/12/04 12:33:45;;;;;;;26.00;14.00;;;2.80;99.90;;;;;;5118540;27;20090;-83
2022/12/04 12:36:12;;;;;;;27.92;13.57;;;2.90;99.90;;;;;;5120641;27;20044;-83
2022/12/04 12:38:43;;;;;;;32.60;15.93;;;2.80;99.90;;;;;;5122852;27;20121;-82
2022/12/04 12:41:34;;;;;;;28.42;15.00;;;2.70;99.90;;;;;;5136261;27;20576;-83
2022/12/04 12:44:03;;;;;;;26.38;11.95;;;2.80;99.90;;;;;;5107327;27;20050;-83
2022/12/04 12:46:35;;;;;;;30.67;15.80;;;2.80;99.90;;;;;;5119492;27;20054;-82
2022/12/04 12:49:22;;;;;;;31.63;15.27;;;2.90;99.90;;;;;;5104225;27;20054;-83
2022/12/04 12:51:57;;;;;;;21.42;12.60;;;2.80;99.90;;;;;;5152806;27;20350;-82
2022/12/04 12:54:36;;;;;;;32.85;16.55;;;3.00;99.90;;;;;;5122045;27;20057;-83
2022/12/04 12:57:19;;;;;;;31.52;15.55;;;2.90;99.90;;;;;;5138203;27;20057;-82
2022/12/04 12:59:52;;;;;;;24.83;13.15;;;2.80;99.90;;;;;;5123098;27;20154;-81
2022/12/04 13:02:28;;;;;;;32.70;16.60;;;3.00;99.90;;;;;;5122054;27;20050;-81
2022/12/04 13:04:56;;;;;;;36.88;18.13;;;3.00;99.90;;;;;;5137854;27;20405;-81